sensor_id;sensor_type;location;lat;lon;timestamp;P1;durP1;ratioP1;P2;durP2;ratioP2
82464;SDS011;72087;53.178;8.738;2024-02-21T00:08:53;3.13;;;1.60;;
82464;SDS011;72087;53.178;8.738;2024-02-21T00:28:53;4.87;;;2.00;;
82464;SDS011;72087;53.178;8.738;2024-02-21T00:48:54;3.23;;;2.40;;
82464;SDS011;72087;53.178;8.738;2024-02-21T01:08:54;3.42;;;1.90;;
82464;SDS011;72087;53.178;8.738;2024-02-21T01:28:55;3.13;;;1.80;;
82464;SDS011;72087;53.178;8.738;2024-02-21T01:48:55;3.13;;;1.40;;
82464;SDS011;72087;53.178;8.738;2024-02-21T02:08:57;4.20;;;2.53;;
82464;SDS011;72087;53.178;8.738;2024-02-21T02:28:57;5.97;;;3.65;;
82464;SDS011;72087;53.178;8.738;2024-02-21T02:48:57;2.30;;;1.53;;
82464;SDS011;72087;53.178;8.738;2024-02-21T03:08:58;2.73;;;1.73;;
82464;SDS011;72087;53.178;8.738;2024-02-21T03:29:00;3.05;;;1.50;;
82464;SDS011;72087;53.178;8.738;2024-02-21T03:49:00;2.80;;;1.73;;
82464;SDS011;72087;53.178;8.738;2024-02-21T04:09:01;2.03;;;1.10;;
82464;SDS011;72087;53.178;8.738;2024-02-21T04:29:01;1.90;;;1.17;;
82464;SDS011;72087;53.178;8.738;2024-02-21T04:49:02;1.70;;;1.00;;
82464;SDS011;72087;53.178;8.738;2024-02-21T05:09:02;2.08;;;1.30;;
82464;SDS011;72087;53.178;8.738;2024-02-21T05:29:03;1.95;;;1.45;;
82464;SDS011;72087;53.178;8.738;2024-02-21T05:49:03;1.40;;;1.03;;
82464;SDS011;72087;53.178;8.738;2024-02-21T06:09:04;1.50;;;0.95;;
82464;SDS011;72087;53.178;8.738;2024-02-21T06:29:04;0.90;;;0.40;;
82464;SDS011;72087;53.178;8.738;2024-02-21T06:49:05;0.83;;;0.60;;
82464;SDS011;72087;53.178;8.738;2024-02-21T07:09:05;1.50;;;1.03;;
82464;SDS011;72087;53.178;8.738;2024-02-21T07:29:05;1.07;;;0.90;;
82464;SDS011;72087;53.178;8.738;2024-02-21T07:49:06;1.17;;;1.00;;
82464;SDS011;72087;53.178;8.738;2024-02-21T08:09:06;1.80;;;1.15;;
82464;SDS011;72087;53.178;8.738;2024-02-21T08:29:07;5.23;;;1.77;;
82464;SDS011;72087;53.178;8.738;2024-02-21T08:49:09;2.58;;;1.10;;
82464;SDS011;72087;53.178;8.738;2024-02-21T09:29:10;1.97;;;1.20;;
82464;SDS011;72087;53.178;8.738;2024-02-21T10:09:23;2.17;;;1.42;;
82464;SDS011;72087;53.178;8.738;2024-02-21T10:29:27;3.33;;;2.05;;
82464;SDS011;72087;53.178;8.738;2024-02-21T10:49:28;1.55;;;1.10;;
82464;SDS011;72087;53.178;8.738;2024-02-21T11:09:31;2.28;;;1.48;;
82464;SDS011;72087;53.178;8.738;2024-02-21T11:29:39;2.25;;;1.40;;
82464;SDS011;72087;53.178;8.738;2024-02-21T11:49:46;2.85;;;1.48;;
82464;SDS011;72087;53.178;8.738;2024-02-21T12:09:50;3.55;;;2.00;;
82464;SDS011;72087;53.178;8.738;2024-02-21T12:29:51;3.13;;;1.13;;
82464;SDS011;72087;53.178;8.738;2024-02-21T12:49:51;1.10;;;0.97;;
82464;SDS011;72087;53.178;8.738;2024-02-21T13:09:52;1.33;;;0.80;;
82464;SDS011;72087;53.178;8.738;2024-02-21T13:29:52;0.88;;;0.60;;
82464;SDS011;72087;53.178;8.738;2024-02-21T13:49:53;0.70;;;0.40;;
82464;SDS011;72087;53.178;8.738;2024-02-21T14:09:53;1.30;;;1.20;;
82464;SDS011;72087;53.178;8.738;2024-02-21T14:29:53;2.57;;;1.13;;
82464;SDS011;72087;53.178;8.738;2024-02-21T14:49:54;1.73;;;1.13;;
82464;SDS011;72087;53.178;8.738;2024-02-21T15:09:55;0.77;;;0.50;;
82464;SDS011;72087;53.178;8.738;2024-02-21T15:29:57;1.13;;;0.52;;
82464;SDS011;72087;53.178;8.738;2024-02-21T15:49:57;1.17;;;0.90;;
82464;SDS011;72087;53.178;8.738;2024-02-21T16:09:59;0.40;;;0.40;;
82464;SDS011;72087;53.178;8.738;2024-02-21T16:30:00;1.73;;;1.10;;
82464;SDS011;72087;53.178;8.738;2024-02-21T16:50:00;1.23;;;0.80;;
82464;SDS011;72087;53.178;8.738;2024-02-21T17:10:02;0.50;;;0.30;;
82464;SDS011;72087;53.178;8.738;2024-02-21T17:30:05;0.20;;;0.20;;
82464;SDS011;72087;53.178;8.738;2024-02-21T17:50:06;0.20;;;0.20;;
82464;SDS011;72087;53.178;8.738;2024-02-21T18:10:07;0.28;;;0.28;;
82464;SDS011;72087;53.178;8.738;2024-02-21T18:30:08;0.45;;;0.32;;
82464;SDS011;72087;53.178;8.738;2024-02-21T18:50:09;0.32;;;0.32;;
82464;SDS011;72087;53.178;8.738;2024-02-21T19:10:10;0.20;;;0.20;;
82464;SDS011;72087;53.178;8.738;2024-02-21T19:30:12;0.50;;;0.30;;
82464;SDS011;72087;53.178;8.738;2024-02-21T19:50:13;0.30;;;0.30;;
82464;SDS011;72087;53.178;8.738;2024-02-21T20:10:18;0.25;;;0.10;;
82464;SDS011;72087;53.178;8.738;2024-02-21T20:30:19;0.10;;;0.10;;
82464;SDS011;72087;53.178;8.738;2024-02-21T20:50:20;1.47;;;0.20;;
82464;SDS011;72087;53.178;8.738;2024-02-21T21:10:22;0.55;;;0.25;;
82464;SDS011;72087;53.178;8.738;2024-02-21T21:30:23;1.08;;;0.50;;
82464;SDS011;72087;53.178;8.738;2024-02-21T21:50:26;0.35;;;0.30;;
82464;SDS011;72087;53.178;8.738;2024-02-21T22:10:26;1.38;;;0.35;;
82464;SDS011;72087;53.178;8.738;2024-02-21T22:30:27;0.20;;;0.20;;
82464;SDS011;72087;53.178;8.738;2024-02-21T22:50:27;0.47;;;0.27;;
82464;SDS011;72087;53.178;8.738;2024-02-21T23:10:28;0.10;;;0.10;;
82464;SDS011;72087;53.178;8.738;2024-02-21T23:30:29;0.10;;;0.10;;
82464;SDS011;72087;53.178;8.738;2024-02-21T23:50:29;0.50;;;0.30;;
